Jeff Kindl — WDI5759 — position and weather

sailwx.info

Track history (hours):
 
Tides and Currents Weather Stations Pressure Air Temp Water Temp Dewpoint Dewpoint Depression Visibility Wind Speed Wind Dir Waves Ship Positions

Jeff Kindl

Owner: American Commercial Lines LLC, Jeffersonville, IN. More information available from US FCC via Universal Licensing System and Coast Guard Vessel Documentation Center.

Last reported at 2018-Feb-05 20:12 UTC. Time now 2018-Feb-24 03:58 UTC.
Position N 29°33' W 090°24'.
Warning: this ship's position is 18 days out of date.

Length 27 m; draft 2.9 m.

Type: Tow > 200 m length. MMSI: 367711840.

Date/timePositionNaut miles runAvg speedWind from/ knotsBaromVisibWave heightAir tempDewpointWater temp
2018-Feb-05 20:12N 29°33' W 090°24'1 3.3
2018-Feb-05 20:00N 29°33' W 090°25'0 0.4
2018-Feb-05 19:30N 29°33' W 090°25'1 1.4
2018-Feb-05 18:59N 29°33' W 090°26'1 2.6
2018-Feb-05 18:28N 29°33' W 090°27'2 4.9
2018-Feb-05 18:00N 29°34' W 090°30'2 4.8
2018-Feb-05 17:30N 29°34' W 090°33'16 2.6
2018-Feb-05 11:30N 29°32' W 090°51'3 5.4
2018-Feb-05 10:58N 29°33' W 090°54'3 5.7
2018-Feb-05 10:27N 29°34' W 090°57'56 3.5
2018-Feb-04 18:17N 29°50' W 091°58'1 4.9
2018-Feb-04 17:59N 29°50' W 091°60'3 5.0
2018-Feb-04 17:29N 29°49' W 092°03'8 3.9
2018-Feb-04 15:29N 29°47' W 092°11'2 4.7
2018-Feb-04 14:59N 29°48' W 092°14'2 4.7
2018-Feb-04 14:29N 29°49' W 092°16'2 4.3
2018-Feb-04 13:59N 29°50' W 092°18'56 3.1
2018-Feb-03 19:48N 30°04' W 093°21'3 2.4
2018-Feb-03 18:28N 30°04' W 093°25'2 4.0
2018-Feb-03 18:00N 30°04' W 093°27'2 3.9
2018-Feb-03 17:30N 30°04' W 093°29'2 4.0
2018-Feb-03 17:00N 30°04' W 093°32'4 3.6
2018-Feb-03 15:58N 30°04' W 093°36'2 4.3
2018-Feb-03 15:29N 30°04' W 093°38'2 4.5
2018-Feb-03 14:59N 30°04' W 093°41'2 4.4
2018-Feb-03 14:30N 30°03' W 093°43'2 4.3
2018-Feb-03 14:00N 30°01' W 093°45'2 4.5
2018-Feb-03 13:30N 29°60' W 093°47'3 5.1
2018-Feb-03 13:00N 29°59' W 093°49'2 4.2
2018-Feb-03 12:30N 29°58' W 093°51'2 4.0
2018-Feb-03 12:00N 29°56' W 093°52'3 5.4
2018-Feb-03 11:30N 29°54' W 093°54'3 5.7
2018-Feb-03 11:00N 29°52' W 093°56'2 5.0
2018-Feb-03 10:30N 29°49' W 093°58'2 4.0
2018-Feb-03 10:00N 29°48' W 093°60'2 3.8
2018-Feb-03 09:30N 29°47' W 094°01'2 3.8
2018-Feb-03 09:01N 29°46' W 094°03'2 3.9
2018-Feb-03 08:30N 29°45' W 094°05'2 3.9
2018-Feb-03 08:00N 29°43' W 094°07'6 3.9
2018-Feb-03 06:30N 29°41' W 094°13'2 3.0
2018-Feb-03 06:00N 29°40' W 094°14'2 3.7
2018-Feb-03 05:27N 29°39' W 094°16'13 0.4
2018-Feb-01 17:37N 29°32' W 094°29'0 2.2
2018-Feb-01 17:29N 29°32' W 094°29'0 0.3
2018-Feb-01 17:00N 29°32' W 094°29'2 5.0
2018-Feb-01 16:30N 29°34' W 094°27'2 4.6
2018-Feb-01 15:59N 29°35' W 094°25'1 2.4
2018-Feb-01 15:26N 29°36' W 094°23'1 2.1
2018-Feb-01 15:01N 29°36' W 094°22'0 0.0
2018-Feb-01 13:31N 29°36' W 094°22'0 0.0
2018-Feb-01 13:00N 29°36' W 094°22'1 1.9
2018-Feb-01 12:31N 29°37' W 094°22'2 3.7
2018-Feb-01 12:01N 29°37' W 094°20'5 4.7
2018-Feb-01 11:00N 29°40' W 094°15'2 3.9
2018-Feb-01 10:30N 29°40' W 094°13'2 3.7
2018-Feb-01 10:00N 29°41' W 094°11'2 3.8
2018-Feb-01 09:31N 29°42' W 094°09'2 3.8
2018-Feb-01 08:59N 29°43' W 094°07'2 3.9
2018-Feb-01 08:31N 29°44' W 094°05'4 3.9
2018-Feb-01 07:30N 29°47' W 094°02'2 4.3
2018-Feb-01 07:00N 29°48' W 094°00'2 4.5
2018-Feb-01 06:31N 29°49' W 093°58'3 5.8
2018-Feb-01 06:01N 29°52' W 093°56'2 4.8
2018-Feb-01 05:30N 29°54' W 093°54'2 4.8
2018-Feb-01 05:00N 29°56' W 093°53'2 4.9
2018-Feb-01 04:30N 29°58' W 093°51'3 5.2
2018-Feb-01 04:00N 29°59' W 093°49'5 5.1
2018-Feb-01 03:00N 30°02' W 093°44'2 4.9
2018-Feb-01 02:30N 30°03' W 093°42'2 4.9
2018-Feb-01 02:00N 30°04' W 093°39'2 4.8
2018-Feb-01 01:30N 30°04' W 093°36'3 5.7
2018-Feb-01 01:00N 30°04' W 093°33'3 6.2
2018-Feb-01 00:30N 30°04' W 093°29'3 6.1
2018-Feb-01 00:00N 30°04' W 093°26'3 3.4
2018-Jan-31 23:00N 30°04' W 093°22'0 0.0
2018-Jan-31 22:30N 30°04' W 093°22'0 0.0
2018-Jan-31 21:00N 30°04' W 093°22'0 0.0
2018-Jan-31 20:30N 30°04' W 093°22'0 0.0
2018-Jan-31 20:00N 30°04' W 093°22'0 0.0
2018-Jan-31 19:30N 30°04' W 093°22'0 0.0
2018-Jan-31 19:00N 30°04' W 093°22'0 0.0
2018-Jan-31 18:30N 30°04' W 093°22'0 0.1
2018-Jan-31 18:00N 30°04' W 093°22'1 1.9
2018-Jan-31 17:30N 30°04' W 093°23'2 4.4
2018-Jan-31 17:00N 30°04' W 093°26'2 4.1
2018-Jan-31 16:30N 30°04' W 093°28'2 4.1
2018-Jan-31 16:00N 30°04' W 093°30'2 4.1
2018-Jan-31 15:30N 30°04' W 093°33'2 4.1
2018-Jan-31 15:00N 30°04' W 093°35'2 4.0
2018-Jan-31 14:30N 30°04' W 093°37'6 4.0
2018-Jan-31 13:00N 30°02' W 093°44'2 3.9
2018-Jan-31 12:30N 30°01' W 093°45'2 4.3
2018-Jan-31 12:00N 29°59' W 093°47'2 4.7
2018-Jan-31 11:30N 29°59' W 093°50'2 4.0
2018-Jan-31 11:00N 29°57' W 093°52'2 4.4
2018-Jan-31 10:30N 29°55' W 093°53'2 5.0
2018-Jan-31 10:00N 29°53' W 093°55'3 5.3
2018-Jan-31 09:30N 29°51' W 093°57'2 4.5
2018-Jan-31 09:00N 29°49' W 093°58'2 3.9
2018-Jan-31 08:30N 29°49' W 093°60'2 4.4
2018-Jan-31 08:00N 29°47' W 094°02'2 4.4
2018-Jan-31 07:30N 29°46' W 094°03'2 4.5
2018-Jan-31 07:00N 29°44' W 094°06'2 4.5
2018-Jan-31 06:29N 29°43' W 094°08'2 4.5
2018-Jan-31 06:00N 29°41' W 094°10'2 4.0
2018-Jan-31 05:30N 29°41' W 094°12'2 4.3
2018-Jan-31 05:00N 29°40' W 094°14'2 4.0
2018-Jan-31 04:30N 29°39' W 094°16'2 4.0
2018-Jan-31 04:00N 29°38' W 094°18'2 4.2
2018-Jan-31 03:30N 29°37' W 094°20'2 3.4
2018-Jan-31 03:00N 29°36' W 094°22'2 3.9
2018-Jan-31 02:30N 29°36' W 094°24'2 4.0
2018-Jan-31 01:56N 29°34' W 094°26'5 4.6
2018-Jan-31 00:48N 29°31' W 094°31'18 0.8
2018-Jan-30 03:11N 29°26' W 094°50'4 7.3
2018-Jan-30 02:42N 29°29' W 094°52'1 7.0
2018-Jan-30 02:30N 29°30' W 094°52'4 7.2
2018-Jan-30 02:00N 29°33' W 094°55'4 7.2
2018-Jan-30 01:30N 29°36' W 094°57'4 7.4
2018-Jan-30 01:00N 29°39' W 094°58'3 6.8
2018-Jan-30 00:30N 29°42' W 095°01'5 0.7
2018-Jan-29 16:54N 29°46' W 095°05'0 0.1
2018-Jan-29 13:50N 29°46' W 095°05'0 0.0
2018-Jan-29 11:26N 29°46' W 095°05'0 0.0
2018-Jan-29 10:47N 29°46' W 095°05'0 0.0
2018-Jan-29 10:14N 29°46' W 095°05'0 0.0
2018-Jan-29 07:05N 29°46' W 095°05'0 0.0
2018-Jan-29 06:53N 29°46' W 095°05'0 0.0
2018-Jan-29 06:29N 29°46' W 095°05'0 0.0
2018-Jan-29 05:23N 29°46' W 095°05'0 0.0
2018-Jan-29 04:59N 29°46' W 095°05'0 0.0
2018-Jan-29 03:08N 29°46' W 095°05'0 0.0
2018-Jan-29 02:56N 29°46' W 095°05'0 0.0
2018-Jan-28 21:19N 29°46' W 095°05'0 0.2
2018-Jan-28 20:56N 29°46' W 095°05'0 0.0
2018-Jan-28 17:50N 29°46' W 095°05'2 3.3
2018-Jan-28 17:20N 29°45' W 095°04'3 8.0
2018-Jan-28 16:58N 29°43' W 095°01'4 7.8
2018-Jan-28 16:30N 29°40' W 094°59'4 9.0
2018-Jan-28 16:00N 29°36' W 094°57'  
Track history (hours):
 
Tides and Currents Weather Stations Pressure Air Temp Water Temp Dewpoint Dewpoint Depression Visibility Wind Speed Wind Dir Waves Ship Positions

Jeff Kindl

Owner: American Commercial Lines LLC, Jeffersonville, IN. More information available from US FCC via Universal Licensing System and Coast Guard Vessel Documentation Center.

Last reported at 2018-Feb-05 20:12 UTC. Time now 2018-Feb-24 03:58 UTC.
Position N 29°33' W 090°24'.
Warning: this ship's position is 18 days out of date.

Length 27 m; draft 2.9 m.

Type: Tow > 200 m length. MMSI: 367711840.

Date/timePositionNaut miles runAvg speedWind from/ knotsBaromVisibWave heightAir tempDewpointWater temp
2018-Feb-05 20:12N 29°33' W 090°24'1 3.3
2018-Feb-05 20:00N 29°33' W 090°25'0 0.4
2018-Feb-05 19:30N 29°33' W 090°25'1 1.4
2018-Feb-05 18:59N 29°33' W 090°26'1 2.6
2018-Feb-05 18:28N 29°33' W 090°27'2 4.9
2018-Feb-05 18:00N 29°34' W 090°30'2 4.8
2018-Feb-05 17:30N 29°34' W 090°33'16 2.6
2018-Feb-05 11:30N 29°32' W 090°51'3 5.4
2018-Feb-05 10:58N 29°33' W 090°54'3 5.7
2018-Feb-05 10:27N 29°34' W 090°57'56 3.5
2018-Feb-04 18:17N 29°50' W 091°58'1 4.9
2018-Feb-04 17:59N 29°50' W 091°60'3 5.0
2018-Feb-04 17:29N 29°49' W 092°03'8 3.9
2018-Feb-04 15:29N 29°47' W 092°11'2 4.7
2018-Feb-04 14:59N 29°48' W 092°14'2 4.7
2018-Feb-04 14:29N 29°49' W 092°16'2 4.3
2018-Feb-04 13:59N 29°50' W 092°18'56 3.1
2018-Feb-03 19:48N 30°04' W 093°21'3 2.4
2018-Feb-03 18:28N 30°04' W 093°25'2 4.0
2018-Feb-03 18:00N 30°04' W 093°27'2 3.9
2018-Feb-03 17:30N 30°04' W 093°29'2 4.0
2018-Feb-03 17:00N 30°04' W 093°32'4 3.6
2018-Feb-03 15:58N 30°04' W 093°36'2 4.3
2018-Feb-03 15:29N 30°04' W 093°38'2 4.5
2018-Feb-03 14:59N 30°04' W 093°41'2 4.4
2018-Feb-03 14:30N 30°03' W 093°43'2 4.3
2018-Feb-03 14:00N 30°01' W 093°45'2 4.5
2018-Feb-03 13:30N 29°60' W 093°47'3 5.1
2018-Feb-03 13:00N 29°59' W 093°49'2 4.2
2018-Feb-03 12:30N 29°58' W 093°51'2 4.0
2018-Feb-03 12:00N 29°56' W 093°52'3 5.4
2018-Feb-03 11:30N 29°54' W 093°54'3 5.7
2018-Feb-03 11:00N 29°52' W 093°56'2 5.0
2018-Feb-03 10:30N 29°49' W 093°58'2 4.0
2018-Feb-03 10:00N 29°48' W 093°60'2 3.8
2018-Feb-03 09:30N 29°47' W 094°01'2 3.8
2018-Feb-03 09:01N 29°46' W 094°03'2 3.9
2018-Feb-03 08:30N 29°45' W 094°05'2 3.9
2018-Feb-03 08:00N 29°43' W 094°07'6 3.9
2018-Feb-03 06:30N 29°41' W 094°13'2 3.0
2018-Feb-03 06:00N 29°40' W 094°14'2 3.7
2018-Feb-03 05:27N 29°39' W 094°16'13 0.4
2018-Feb-01 17:37N 29°32' W 094°29'0 2.2
2018-Feb-01 17:29N 29°32' W 094°29'0 0.3
2018-Feb-01 17:00N 29°32' W 094°29'2 5.0
2018-Feb-01 16:30N 29°34' W 094°27'2 4.6
2018-Feb-01 15:59N 29°35' W 094°25'1 2.4
2018-Feb-01 15:26N 29°36' W 094°23'1 2.1
2018-Feb-01 15:01N 29°36' W 094°22'0 0.0
2018-Feb-01 13:31N 29°36' W 094°22'0 0.0
2018-Feb-01 13:00N 29°36' W 094°22'1 1.9
2018-Feb-01 12:31N 29°37' W 094°22'2 3.7
2018-Feb-01 12:01N 29°37' W 094°20'5 4.7
2018-Feb-01 11:00N 29°40' W 094°15'2 3.9
2018-Feb-01 10:30N 29°40' W 094°13'2 3.7
2018-Feb-01 10:00N 29°41' W 094°11'2 3.8
2018-Feb-01 09:31N 29°42' W 094°09'2 3.8
2018-Feb-01 08:59N 29°43' W 094°07'2 3.9
2018-Feb-01 08:31N 29°44' W 094°05'4 3.9
2018-Feb-01 07:30N 29°47' W 094°02'2 4.3
2018-Feb-01 07:00N 29°48' W 094°00'2 4.5
2018-Feb-01 06:31N 29°49' W 093°58'3 5.8
2018-Feb-01 06:01N 29°52' W 093°56'2 4.8
2018-Feb-01 05:30N 29°54' W 093°54'2 4.8
2018-Feb-01 05:00N 29°56' W 093°53'2 4.9
2018-Feb-01 04:30N 29°58' W 093°51'3 5.2
2018-Feb-01 04:00N 29°59' W 093°49'5 5.1
2018-Feb-01 03:00N 30°02' W 093°44'2 4.9
2018-Feb-01 02:30N 30°03' W 093°42'2 4.9
2018-Feb-01 02:00N 30°04' W 093°39'2 4.8
2018-Feb-01 01:30N 30°04' W 093°36'3 5.7
2018-Feb-01 01:00N 30°04' W 093°33'3 6.2
2018-Feb-01 00:30N 30°04' W 093°29'3 6.1
2018-Feb-01 00:00N 30°04' W 093°26'3 3.4
2018-Jan-31 23:00N 30°04' W 093°22'0 0.0
2018-Jan-31 22:30N 30°04' W 093°22'0 0.0
2018-Jan-31 21:00N 30°04' W 093°22'0 0.0
2018-Jan-31 20:30N 30°04' W 093°22'0 0.0
2018-Jan-31 20:00N 30°04' W 093°22'0 0.0
2018-Jan-31 19:30N 30°04' W 093°22'0 0.0
2018-Jan-31 19:00N 30°04' W 093°22'0 0.0
2018-Jan-31 18:30N 30°04' W 093°22'0 0.1
2018-Jan-31 18:00N 30°04' W 093°22'1 1.9
2018-Jan-31 17:30N 30°04' W 093°23'2 4.4
2018-Jan-31 17:00N 30°04' W 093°26'2 4.1
2018-Jan-31 16:30N 30°04' W 093°28'2 4.1
2018-Jan-31 16:00N 30°04' W 093°30'2 4.1
2018-Jan-31 15:30N 30°04' W 093°33'2 4.1
2018-Jan-31 15:00N 30°04' W 093°35'2 4.0
2018-Jan-31 14:30N 30°04' W 093°37'6 4.0
2018-Jan-31 13:00N 30°02' W 093°44'2 3.9
2018-Jan-31 12:30N 30°01' W 093°45'2 4.3
2018-Jan-31 12:00N 29°59' W 093°47'2 4.7
2018-Jan-31 11:30N 29°59' W 093°50'2 4.0
2018-Jan-31 11:00N 29°57' W 093°52'2 4.4
2018-Jan-31 10:30N 29°55' W 093°53'2 5.0
2018-Jan-31 10:00N 29°53' W 093°55'3 5.3
2018-Jan-31 09:30N 29°51' W 093°57'2 4.5
2018-Jan-31 09:00N 29°49' W 093°58'2 3.9
2018-Jan-31 08:30N 29°49' W 093°60'2 4.4
2018-Jan-31 08:00N 29°47' W 094°02'2 4.4
2018-Jan-31 07:30N 29°46' W 094°03'2 4.5
2018-Jan-31 07:00N 29°44' W 094°06'2 4.5
2018-Jan-31 06:29N 29°43' W 094°08'2 4.5
2018-Jan-31 06:00N 29°41' W 094°10'2 4.0
2018-Jan-31 05:30N 29°41' W 094°12'2 4.3
2018-Jan-31 05:00N 29°40' W 094°14'2 4.0
2018-Jan-31 04:30N 29°39' W 094°16'2 4.0
2018-Jan-31 04:00N 29°38' W 094°18'2 4.2
2018-Jan-31 03:30N 29°37' W 094°20'2 3.4
2018-Jan-31 03:00N 29°36' W 094°22'2 3.9
2018-Jan-31 02:30N 29°36' W 094°24'2 4.0
2018-Jan-31 01:56N 29°34' W 094°26'5 4.6
2018-Jan-31 00:48N 29°31' W 094°31'18 0.8
2018-Jan-30 03:11N 29°26' W 094°50'4 7.3
2018-Jan-30 02:42N 29°29' W 094°52'1 7.0
2018-Jan-30 02:30N 29°30' W 094°52'4 7.2
2018-Jan-30 02:00N 29°33' W 094°55'4 7.2
2018-Jan-30 01:30N 29°36' W 094°57'4 7.4
2018-Jan-30 01:00N 29°39' W 094°58'3 6.8
2018-Jan-30 00:30N 29°42' W 095°01'5 0.7
2018-Jan-29 16:54N 29°46' W 095°05'0 0.1
2018-Jan-29 13:50N 29°46' W 095°05'0 0.0
2018-Jan-29 11:26N 29°46' W 095°05'0 0.0
2018-Jan-29 10:47N 29°46' W 095°05'0 0.0
2018-Jan-29 10:14N 29°46' W 095°05'0 0.0
2018-Jan-29 07:05N 29°46' W 095°05'0 0.0
2018-Jan-29 06:53N 29°46' W 095°05'0 0.0
2018-Jan-29 06:29N 29°46' W 095°05'0 0.0
2018-Jan-29 05:23N 29°46' W 095°05'0 0.0
2018-Jan-29 04:59N 29°46' W 095°05'0 0.0
2018-Jan-29 03:08N 29°46' W 095°05'0 0.0
2018-Jan-29 02:56N 29°46' W 095°05'0 0.0
2018-Jan-28 21:19N 29°46' W 095°05'0 0.2
2018-Jan-28 20:56N 29°46' W 095°05'0 0.0
2018-Jan-28 17:50N 29°46' W 095°05'2 3.3
2018-Jan-28 17:20N 29°45' W 095°04'3 8.0
2018-Jan-28 16:58N 29°43' W 095°01'4 7.8
2018-Jan-28 16:30N 29°40' W 094°59'4 9.0
2018-Jan-28 16:00N 29°36' W 094°57'  

Dump ship's entire track history